createdAt,value
2022-10-19T00:01:02.991Z,102245.38
2022-10-19T00:03:30.846Z,102244.56
2022-10-19T00:05:58.751Z,102242.84
2022-10-19T00:08:27.850Z,102253.34
2022-10-19T00:10:55.542Z,102254.25
2022-10-19T00:13:23.254Z,102255.13
2022-10-19T00:15:50.951Z,102260.38
2022-10-19T00:18:18.623Z,102256.91
2022-10-19T00:20:46.397Z,102263.00
2022-10-19T00:23:14.163Z,102257.75
2022-10-19T00:25:43.241Z,102266.44
2022-10-19T00:28:11.044Z,102268.19
2022-10-19T00:30:38.870Z,102273.38
2022-10-19T00:33:06.572Z,102275.16
2022-10-19T00:35:34.271Z,102271.66
2022-10-19T00:38:02.108Z,102249.88
2022-10-19T00:40:29.784Z,102272.53
2022-10-19T00:42:58.850Z,102278.59
2022-10-19T00:45:26.666Z,102283.78
2022-10-19T00:47:54.390Z,102291.59
2022-10-19T00:50:22.570Z,102295.97
2022-10-19T00:52:50.546Z,102295.94
2022-10-19T00:55:18.316Z,102288.09
2022-10-19T00:57:46.083Z,102290.69
2022-10-19T01:00:15.600Z,102284.63
2022-10-19T01:02:43.347Z,102304.63
2022-10-19T01:05:12.374Z,102300.25
2022-10-19T01:07:40.233Z,102305.50
2022-10-19T01:10:09.673Z,102308.94
2022-10-19T01:13:05.958Z,102303.72
2022-10-19T01:15:42.860Z,102304.59
2022-10-19T01:18:17.793Z,102310.63
2022-10-19T01:21:20.761Z,102312.38
2022-10-19T01:24:12.371Z,102307.16
2022-10-19T01:27:00.285Z,102304.53
2022-10-19T01:29:45.986Z,102268.81
2022-10-19T01:32:23.488Z,102318.44
2022-10-19T01:34:59.876Z,102306.22
2022-10-19T01:37:37.057Z,102309.75
2022-10-19T01:40:10.121Z,102319.34
2022-10-19T01:42:46.239Z,102323.69
2022-10-19T01:45:18.707Z,102320.19
2022-10-19T01:47:54.431Z,102320.22
2022-10-19T01:50:28.713Z,102316.75
2022-10-19T01:52:57.988Z,102317.66
2022-10-19T01:55:28.281Z,102322.00
2022-10-19T01:58:00.362Z,102299.34
2022-10-19T02:00:30.625Z,102289.78
2022-10-19T02:03:01.603Z,102294.13
2022-10-19T02:05:32.824Z,102321.13
2022-10-19T02:08:05.039Z,102313.28
2022-10-19T02:10:36.296Z,102322.00
2022-10-19T02:13:04.597Z,102321.13
2022-10-19T02:15:37.353Z,102318.50
2022-10-19T02:18:08.133Z,102325.47
2022-10-19T02:20:37.416Z,102321.09
2022-10-19T02:23:05.917Z,102327.19
2022-10-19T02:25:34.034Z,102334.13
2022-10-19T02:28:03.651Z,102341.06
2022-10-19T02:30:31.479Z,102340.19
2022-10-19T02:32:59.174Z,102334.97
2022-10-19T02:35:28.822Z,102335.78
2022-10-19T02:38:00.553Z,102327.09
2022-10-19T02:40:30.748Z,102340.09
2022-10-19T02:43:05.117Z,102319.19
2022-10-19T02:45:36.671Z,102326.13
2022-10-19T02:48:07.255Z,102350.56
2022-10-19T02:50:36.574Z,102350.59
2022-10-19T02:53:04.755Z,102359.34
2022-10-19T02:55:32.641Z,102357.66
2022-10-19T02:58:00.370Z,102361.13
2022-10-19T03:00:28.081Z,102362.88
2022-10-19T03:02:55.766Z,102363.78
2022-10-19T03:05:23.449Z,102351.59
2022-10-19T03:07:52.473Z,102367.31
2022-10-19T03:10:20.133Z,102363.84
2022-10-19T03:12:47.821Z,102367.31
2022-10-19T03:15:16.977Z,102369.06
2022-10-19T03:17:44.654Z,102356.88
2022-10-19T03:20:12.811Z,102362.09
2022-10-19T03:22:40.525Z,102363.84
2022-10-19T03:25:10.313Z,102362.13
2022-10-19T03:27:37.990Z,102375.22
2022-10-19T03:30:06.275Z,102363.88
2022-10-19T03:32:33.960Z,102374.31
2022-10-19T03:35:01.635Z,102364.75
2022-10-19T03:37:29.267Z,102368.22
2022-10-19T03:39:56.942Z,102370.84
2022-10-19T03:42:25.986Z,102370.84
2022-10-19T03:44:53.689Z,102376.06
2022-10-19T03:47:21.390Z,102383.03
2022-10-19T03:49:50.390Z,102391.78
2022-10-19T03:52:18.926Z,102390.88
2022-10-19T03:54:47.230Z,102389.16
2022-10-19T03:57:14.901Z,102375.19
2022-10-19T03:59:43.929Z,102400.47
2022-10-19T04:02:11.592Z,102395.22
2022-10-19T04:04:39.438Z,102397.81
2022-10-19T04:07:07.188Z,102393.44
2022-10-19T04:09:34.867Z,102400.38
2022-10-19T04:12:02.578Z,102403.84
2022-10-19T04:14:32.445Z,102405.53
2022-10-19T04:17:02.807Z,102393.31
2022-10-19T04:19:30.678Z,102403.75
2022-10-19T04:21:58.893Z,102369.72
2022-10-19T04:24:26.686Z,102409.75
2022-10-19T04:26:56.086Z,102414.13
2022-10-19T04:29:29.474Z,102428.88
2022-10-19T04:31:57.917Z,102433.22
2022-10-19T04:34:26.996Z,102434.03
2022-10-19T04:36:54.918Z,102420.00
2022-10-19T04:39:22.628Z,102443.53
2022-10-19T04:41:50.347Z,102443.53
2022-10-19T04:44:18.080Z,102446.97
2022-10-19T04:46:45.771Z,102445.22
2022-10-19T04:49:16.454Z,102445.16
2022-10-19T04:51:48.478Z,102452.06
2022-10-19T04:54:16.211Z,102460.78
2022-10-19T04:56:43.879Z,102458.97
2022-10-19T04:59:14.496Z,102443.19
2022-10-19T05:01:46.328Z,102464.91
2022-10-19T05:04:15.154Z,102470.00
2022-10-19T05:06:45.837Z,102465.59
2022-10-19T05:09:14.944Z,102465.50
2022-10-19T05:11:42.650Z,102464.59
2022-10-19T05:14:10.363Z,102467.94
2022-10-19T05:16:41.025Z,102461.75
2022-10-19T05:19:08.723Z,102477.34
2022-10-19T05:21:36.442Z,102475.63
2022-10-19T05:24:04.187Z,102468.84
2022-10-19T05:26:33.229Z,102470.59
2022-10-19T05:29:04.360Z,102478.31
2022-10-19T05:31:33.908Z,102480.09
2022-10-19T05:34:03.133Z,102486.09
2022-10-19T05:36:34.796Z,102499.13
2022-10-19T05:39:06.443Z,102486.91
2022-10-19T05:41:36.088Z,102492.03
2022-10-19T05:44:05.178Z,102491.22
2022-10-19T05:46:34.313Z,102498.13
2022-10-19T05:49:02.303Z,102497.19
2022-10-19T05:51:30.078Z,102497.13
2022-10-19T05:53:58.113Z,102388.84
2022-10-19T05:56:27.314Z,102501.53
2022-10-19T05:58:56.743Z,102475.28
2022-10-19T06:01:24.508Z,102492.78
2022-10-19T06:03:53.869Z,102497.09
2022-10-19T06:06:22.259Z,102505.78
2022-10-19T06:08:50.821Z,102505.84
2022-10-19T06:11:20.584Z,102505.88
2022-10-19T06:13:50.512Z,102505.88
2022-10-19T06:16:20.574Z,102509.41
2022-10-19T06:18:48.427Z,102513.75
2022-10-19T06:21:18.602Z,102504.13
2022-10-19T06:23:46.685Z,102512.94
2022-10-19T06:26:15.565Z,102529.50
2022-10-19T06:28:44.840Z,102527.78
2022-10-19T06:31:13.416Z,102531.38
2022-10-19T06:33:48.656Z,102529.72
2022-10-19T06:36:19.603Z,102517.56
2022-10-19T06:38:47.815Z,102497.38
2022-10-19T06:41:15.847Z,102524.53
2022-10-19T06:43:44.379Z,102522.81
2022-10-19T06:46:14.866Z,102536.84
2022-10-19T06:48:44.032Z,102536.97
2022-10-19T06:51:13.568Z,102483.03
2022-10-19T06:53:41.285Z,102524.13
2022-10-19T06:56:09.530Z,102526.97
2022-10-19T06:58:37.700Z,102531.25
2022-10-19T07:01:08.016Z,102528.75
2022-10-19T07:03:37.438Z,102521.84
2022-10-19T07:06:08.375Z,102524.50
2022-10-19T07:08:37.666Z,102522.72
2022-10-19T07:11:07.633Z,102523.56
2022-10-19T07:13:35.864Z,102528.88
2022-10-19T07:16:06.825Z,102532.38
2022-10-19T07:18:34.810Z,102531.69
2022-10-19T07:21:03.825Z,102530.72
2022-10-19T07:23:34.622Z,102534.19
2022-10-19T07:26:06.190Z,102535.91
2022-10-19T07:28:34.307Z,102498.50
2022-10-19T07:31:06.767Z,102539.53
2022-10-19T07:33:34.675Z,102546.50
2022-10-19T07:36:03.375Z,102520.41
2022-10-19T07:38:33.883Z,102554.47
2022-10-19T07:41:03.229Z,102553.66
2022-10-19T07:43:31.091Z,102546.78
2022-10-19T07:46:00.177Z,102552.84
2022-10-19T07:48:27.832Z,102543.34
2022-10-19T07:50:55.741Z,102541.56
2022-10-19T07:53:24.065Z,102547.72
2022-10-19T07:55:53.093Z,102542.50
2022-10-19T07:58:20.821Z,102524.13
2022-10-19T08:00:48.654Z,102529.41
2022-10-19T08:04:13.649Z,102547.75
2022-10-19T08:06:06.589Z,102543.41
2022-10-19T08:08:34.561Z,102546.91
2022-10-19T08:11:09.408Z,102557.31
2022-10-19T08:13:37.374Z,102561.69
2022-10-19T08:16:05.405Z,102550.38
2022-10-19T08:18:33.800Z,102552.16
2022-10-19T08:21:03.329Z,102556.50
2022-10-19T08:23:31.019Z,102541.66
2022-10-19T08:25:59.368Z,102512.72
2022-10-19T08:28:28.497Z,102543.72
2022-10-19T08:30:58.949Z,102538.94
2022-10-19T08:33:27.547Z,102545.06
2022-10-19T08:35:55.240Z,102536.28
2022-10-19T08:38:22.963Z,102519.69
2022-10-19T08:40:50.687Z,102533.75
2022-10-19T08:43:28.628Z,102540.69
2022-10-19T08:46:07.993Z,102531.06
2022-10-19T08:48:39.274Z,102531.94
2022-10-19T08:51:09.373Z,102536.94
2022-10-19T08:53:44.880Z,102538.25
2022-10-19T08:56:45.783Z,102546.41
2022-10-19T08:59:17.543Z,102542.44
2022-10-19T09:01:53.132Z,102532.50
2022-10-19T09:04:24.837Z,102528.84
2022-10-19T09:07:17.652Z,102530.59
2022-10-19T09:09:51.354Z,102512.59
2022-10-19T09:12:25.834Z,102535.16
2022-10-19T09:14:58.907Z,102522.84
2022-10-19T09:17:29.068Z,102528.69
2022-10-19T09:19:57.728Z,102526.97
2022-10-19T09:22:30.588Z,102469.16
2022-10-19T09:25:02.211Z,102529.28
2022-10-19T09:27:36.574Z,102523.63
2022-10-19T09:30:07.069Z,102519.41
2022-10-19T09:32:38.591Z,102520.56
2022-10-19T09:35:18.839Z,102530.44
2022-10-19T09:37:49.492Z,102535.31
2022-10-19T09:40:20.584Z,102534.47
2022-10-19T09:42:52.917Z,102533.31
2022-10-19T09:45:32.934Z,102538.47
2022-10-19T09:48:07.095Z,102538.31
2022-10-19T09:50:44.549Z,102535.69
2022-10-19T09:53:20.093Z,102546.13
2022-10-19T09:55:52.502Z,102544.31
2022-10-19T09:58:21.888Z,102526.31
2022-10-19T10:00:51.662Z,102548.59
2022-10-19T10:03:27.403Z,102552.97
2022-10-19T10:05:57.767Z,102550.22
2022-10-19T10:08:28.604Z,102548.25
2022-10-19T10:11:03.616Z,102518.44
2022-10-19T10:13:31.380Z,102555.50
2022-10-19T10:16:02.415Z,102552.38
2022-10-19T10:18:31.545Z,102550.59
2022-10-19T10:21:06.069Z,102547.75
2022-10-19T10:23:36.519Z,102558.88
2022-10-19T10:26:07.103Z,102554.28
2022-10-19T10:28:34.787Z,102563.00
2022-10-19T10:31:05.828Z,102562.47
2022-10-19T10:33:45.050Z,102570.44
2022-10-19T10:36:13.513Z,102569.78
2022-10-19T10:38:45.788Z,102579.56
2022-10-19T10:41:17.675Z,102573.94
2022-10-19T10:43:53.706Z,102582.47
2022-10-19T10:46:25.555Z,102590.06
2022-10-19T10:48:58.351Z,102582.63
2022-10-19T10:51:34.014Z,102582.53
2022-10-19T10:54:16.582Z,102580.47
2022-10-19T10:56:45.478Z,102585.09
2022-10-19T10:59:19.553Z,102583.97
2022-10-19T11:02:03.073Z,102589.75
2022-10-19T11:04:38.328Z,102579.63
2022-10-19T11:07:17.140Z,102584.78
2022-10-19T11:09:50.510Z,102589.50
2022-10-19T11:12:25.072Z,102589.84
2022-10-19T11:14:57.952Z,102575.25
2022-10-19T11:17:29.271Z,102577.28
2022-10-19T11:19:58.381Z,102577.66
2022-10-19T11:22:30.994Z,102554.84
2022-10-19T11:25:10.054Z,102548.72
2022-10-19T11:27:46.099Z,102554.00
2022-10-19T11:30:16.274Z,102543.53
2022-10-19T11:32:56.509Z,102536.22
2022-10-19T11:35:39.455Z,102527.69
2022-10-19T11:38:21.826Z,102531.75
2022-10-19T11:41:18.582Z,102520.13
2022-10-19T11:44:05.156Z,102519.78
2022-10-19T11:46:39.863Z,102526.03
2022-10-19T11:49:22.300Z,102508.63
2022-10-19T11:51:57.924Z,102522.28
2022-10-19T11:54:45.556Z,102518.97
2022-10-19T11:57:16.657Z,102523.78
2022-10-19T12:00:03.650Z,102522.16
2022-10-19T12:03:03.987Z,102516.13
2022-10-19T12:05:36.469Z,102515.19
2022-10-19T12:08:22.455Z,102508.94
2022-10-19T12:10:58.423Z,102515.78
2022-10-19T12:13:30.797Z,102505.22
2022-10-19T12:16:01.458Z,102490.03
2022-10-19T12:18:35.111Z,102499.22
2022-10-19T12:21:05.797Z,102488.31
2022-10-19T12:23:38.524Z,102491.22
2022-10-19T12:26:09.773Z,102481.31
2022-10-19T12:28:41.682Z,102492.72
2022-10-19T12:31:11.798Z,102491.28
2022-10-19T12:33:47.347Z,102487.13
2022-10-19T12:36:28.017Z,102483.16
2022-10-19T12:39:03.480Z,102480.88
2022-10-19T12:41:37.623Z,102484.75
2022-10-19T12:47:01.553Z,102491.56
2022-10-19T12:49:38.481Z,102485.75
2022-10-19T12:52:08.255Z,102488.09
2022-10-19T12:54:40.693Z,102481.25
2022-10-19T12:57:24.518Z,102475.50
2022-10-19T13:00:02.498Z,102479.00
2022-10-19T13:05:07.259Z,102467.66
2022-10-19T13:07:37.106Z,102458.81
2022-10-19T13:10:09.654Z,102449.59
2022-10-19T13:12:46.766Z,102374.00
2022-10-19T13:15:57.480Z,102459.72
2022-10-19T13:19:08.320Z,102455.31
2022-10-19T13:22:07.160Z,102452.78
2022-10-19T13:24:37.529Z,102450.91
2022-10-19T13:27:40.225Z,102438.03
2022-10-19T13:30:48.210Z,102439.16
2022-10-19T13:33:48.135Z,102431.13
2022-10-19T13:36:16.304Z,102410.78
2022-10-19T13:38:45.594Z,102428.19
2022-10-19T13:41:16.947Z,102424.66
2022-10-19T13:43:56.307Z,102426.22
2022-10-19T13:46:41.053Z,102437.41
2022-10-19T13:49:32.609Z,102425.53
2022-10-19T13:52:16.411Z,102439.97
2022-10-19T13:55:05.613Z,102439.22
2022-10-19T13:57:53.144Z,102434.72
2022-10-19T14:00:24.712Z,102446.75
2022-10-19T14:03:01.751Z,102448.19
2022-10-19T14:05:55.574Z,102447.75
2022-10-19T14:09:01.047Z,102438.50
2022-10-19T14:11:33.478Z,102418.59
2022-10-19T14:14:20.397Z,102460.28
2022-10-19T14:16:58.293Z,102459.34
2022-10-19T14:19:31.392Z,102452.63
2022-10-19T14:22:01.644Z,102457.06
2022-10-19T14:24:32.492Z,102457.03
2022-10-19T14:27:03.013Z,102432.31
2022-10-19T14:29:32.244Z,102400.94
2022-10-19T14:32:01.492Z,102424.56
2022-10-19T14:34:29.229Z,102408.97
2022-10-19T14:36:57.206Z,102417.53
2022-10-19T14:39:30.659Z,102426.03
2022-10-19T14:42:04.121Z,102419.22
2022-10-19T14:44:38.670Z,102406.94
2022-10-19T14:47:22.309Z,102424.34
2022-10-19T14:49:50.729Z,102408.78
2022-10-19T14:52:24.140Z,102414.19
2022-10-19T14:54:54.808Z,102379.22
2022-10-19T14:57:28.216Z,102422.38
2022-10-19T14:59:59.238Z,102375.13
2022-10-19T15:02:32.680Z,102420.63
2022-10-19T15:05:02.794Z,102413.78
2022-10-19T15:07:36.583Z,102419.97
2022-10-19T15:10:09.427Z,102402.66
2022-10-19T15:12:40.205Z,102405.34
2022-10-19T15:15:10.958Z,102402.78
2022-10-19T15:17:51.393Z,102407.25
2022-10-19T15:20:26.670Z,102404.59
2022-10-19T15:22:54.777Z,102412.38
2022-10-19T15:25:33.976Z,102407.25
2022-10-19T15:28:19.943Z,102400.56
2022-10-19T15:30:59.345Z,102386.69
2022-10-19T15:33:29.545Z,102374.91
2022-10-19T15:36:17.519Z,102401.13
2022-10-19T15:38:47.275Z,102314.22
2022-10-19T15:41:20.594Z,102386.50
2022-10-19T15:43:52.529Z,102354.31
2022-10-19T15:46:26.486Z,102393.53
2022-10-19T15:48:56.481Z,102384.84
2022-10-19T15:51:49.431Z,102367.44
2022-10-19T15:54:19.454Z,102370.94
2022-10-19T15:56:48.766Z,102374.41
2022-10-19T15:59:18.622Z,102368.25
2022-10-19T16:01:52.563Z,102381.28
2022-10-19T16:04:25.045Z,102383.84
2022-10-19T16:06:52.741Z,102378.53
2022-10-19T16:09:22.410Z,102378.44
2022-10-19T16:11:56.353Z,102379.22
2022-10-19T16:14:24.304Z,102336.44
2022-10-19T16:16:52.074Z,102373.78
2022-10-19T16:19:19.995Z,102394.59
2022-10-19T16:21:50.399Z,102386.63
2022-10-19T16:24:18.364Z,102378.72
2022-10-19T16:26:46.285Z,102361.94
2022-10-19T16:29:13.977Z,102390.59
2022-10-19T16:31:41.698Z,102387.03
2022-10-19T16:34:09.382Z,102388.75
2022-10-19T16:36:37.307Z,102396.41
2022-10-19T16:39:06.389Z,102380.66
2022-10-19T16:41:34.107Z,102403.19
2022-10-19T16:44:01.879Z,102397.88
2022-10-19T16:46:29.741Z,102358.44
2022-10-19T16:48:57.648Z,102388.97
2022-10-19T16:51:35.983Z,102382.81
2022-10-19T16:54:05.427Z,102395.72
2022-10-19T16:56:34.894Z,102409.66
2022-10-19T16:59:04.436Z,102416.63
2022-10-19T17:01:33.334Z,102409.66
2022-10-19T17:04:01.710Z,102318.97
2022-10-19T17:06:29.917Z,102396.88
2022-10-19T17:09:37.035Z,102344.63
2022-10-19T17:11:49.122Z,102403.97
2022-10-19T17:14:20.104Z,102375.19
2022-10-19T17:16:50.290Z,102407.53
2022-10-19T17:19:21.984Z,102388.38
2022-10-19T17:21:51.804Z,102400.47
2022-10-19T17:24:22.706Z,102361.16
2022-10-19T17:26:54.715Z,102405.69
2022-10-19T17:29:24.613Z,102410.75
2022-10-19T17:31:53.570Z,102383.63
2022-10-19T17:34:23.157Z,102430.66
2022-10-19T17:36:52.068Z,102424.50
2022-10-19T17:39:27.473Z,102423.66
2022-10-19T17:42:03.743Z,102429.75
2022-10-19T17:44:33.377Z,102427.19
2022-10-19T17:47:02.915Z,102407.06
2022-10-19T17:49:32.030Z,102415.75
2022-10-19T17:52:01.731Z,102408.75
2022-10-19T17:54:36.256Z,102437.44
2022-10-19T17:57:14.394Z,102433.94
2022-10-19T17:59:52.679Z,102433.94
2022-10-19T18:02:22.672Z,102436.50
2022-10-19T18:04:50.480Z,102389.28
2022-10-19T18:07:18.651Z,102418.94
2022-10-19T18:09:46.337Z,102439.84
2022-10-19T18:12:15.433Z,102436.31
2022-10-19T18:14:43.250Z,102437.16
2022-10-19T18:17:11.176Z,102417.94
2022-10-19T18:19:38.921Z,102431.03
2022-10-19T18:22:06.641Z,102416.94
2022-10-19T18:24:34.793Z,102418.75
2022-10-19T18:27:02.655Z,102418.72
2022-10-19T18:29:31.784Z,102422.16
2022-10-19T18:31:59.551Z,102430.78
2022-10-19T18:34:27.925Z,102406.34
2022-10-19T18:36:55.936Z,102416.81
2022-10-19T18:39:24.068Z,102415.00
2022-10-19T18:41:54.314Z,102418.47
2022-10-19T18:44:26.344Z,102415.09
2022-10-19T18:46:57.259Z,102412.41
2022-10-19T18:49:26.577Z,102387.94
2022-10-19T18:51:56.291Z,102379.13
2022-10-19T18:54:24.594Z,102412.31
2022-10-19T18:56:52.302Z,102405.31
2022-10-19T18:59:20.074Z,102375.66
2022-10-19T19:01:47.840Z,102416.66
2022-10-19T19:04:16.994Z,102385.97
2022-10-19T19:06:44.765Z,102423.38
2022-10-19T19:09:13.201Z,102393.66
2022-10-19T19:11:41.718Z,102416.19
2022-10-19T19:14:13.244Z,102415.97
2022-10-19T19:16:42.623Z,102407.28
2022-10-19T19:19:12.403Z,102405.41
2022-10-19T19:21:44.155Z,102394.00
2022-10-19T19:24:14.167Z,102392.25
2022-10-19T19:26:44.618Z,102396.59
2022-10-19T19:29:12.339Z,102379.19
2022-10-19T19:31:40.433Z,102393.00
2022-10-19T19:34:09.386Z,102381.53
2022-10-19T19:36:38.275Z,102381.41
2022-10-19T19:39:07.374Z,102387.28
2022-10-19T19:41:35.032Z,102388.84
2022-10-19T19:44:02.765Z,102269.94
2022-10-19T19:46:31.137Z,102388.72
2022-10-19T19:49:01.071Z,102373.13
2022-10-19T19:51:30.027Z,102367.19
2022-10-19T19:53:58.305Z,102369.91
2022-10-19T19:56:28.877Z,102365.78
2022-10-19T19:58:58.084Z,102366.06
2022-10-19T20:01:26.869Z,102355.81
2022-10-19T20:03:54.814Z,102358.53
2022-10-19T20:06:25.782Z,102351.88
2022-10-19T20:08:54.370Z,102338.06
2022-10-19T20:11:22.248Z,102350.50
2022-10-19T20:13:51.752Z,102247.50
2022-10-19T20:16:25.135Z,102344.34
2022-10-19T20:19:00.136Z,102343.47
2022-10-19T20:21:28.286Z,102346.94
2022-10-19T20:23:56.007Z,102336.50
2022-10-19T20:26:26.042Z,102338.22
2022-10-19T20:28:55.169Z,102331.34
2022-10-19T20:31:23.635Z,102322.63
2022-10-19T20:33:51.439Z,102329.59
2022-10-19T20:36:21.469Z,102322.47
2022-10-19T20:38:50.892Z,102332.09
2022-10-19T20:41:20.229Z,102330.34
2022-10-19T20:43:48.007Z,102289.31
2022-10-19T20:46:19.178Z,102332.03
2022-10-19T20:48:47.074Z,102323.28
2022-10-19T20:51:16.865Z,102309.41
2022-10-19T20:53:46.345Z,102321.63
2022-10-19T20:56:15.735Z,102327.75
2022-10-19T20:58:44.982Z,102322.56
2022-10-19T21:01:15.143Z,102319.88
2022-10-19T21:03:49.108Z,102266.56
2022-10-19T21:06:17.331Z,102327.59
2022-10-19T21:08:45.177Z,102322.38
2022-10-19T21:11:14.787Z,102287.38
2022-10-19T21:13:42.750Z,102250.59
2022-10-19T21:16:11.647Z,102307.31
2022-10-19T21:18:39.793Z,102296.06
2022-10-19T21:21:17.790Z,102311.69
2022-10-19T21:23:46.767Z,102296.00
2022-10-19T21:26:15.037Z,102289.09
2022-10-19T21:28:48.179Z,102289.25
2022-10-19T21:31:17.305Z,102259.50
2022-10-19T21:33:45.699Z,102281.28
2022-10-19T21:36:15.707Z,102271.69
2022-10-19T21:38:43.757Z,102252.34
2022-10-19T21:41:14.741Z,102238.47
2022-10-19T21:43:43.240Z,102247.97
2022-10-19T21:46:14.871Z,102231.47
2022-10-19T21:48:43.166Z,102218.31
2022-10-19T21:51:24.866Z,102239.97
2022-10-19T21:53:52.587Z,102274.19
2022-10-19T21:56:20.278Z,102266.22
2022-10-19T21:58:48.396Z,102254.09
2022-10-19T22:01:16.347Z,102275.00
2022-10-19T22:03:44.211Z,102264.47
2022-10-19T22:06:12.322Z,102227.72
2022-10-19T22:08:45.042Z,102256.66
2022-10-19T22:11:14.518Z,102262.13
2022-10-19T22:13:42.598Z,102235.00
2022-10-19T22:16:12.763Z,102266.28
2022-10-19T22:18:40.478Z,102255.81
2022-10-19T22:21:10.290Z,102263.66
2022-10-19T22:23:38.311Z,102258.47
2022-10-19T22:26:14.939Z,102251.69
2022-10-19T22:28:43.077Z,102251.69
2022-10-19T22:31:11.302Z,102251.75
2022-10-19T22:33:39.672Z,102257.97
2022-10-19T22:36:10.025Z,102248.41
2022-10-19T22:38:38.265Z,102260.56
2022-10-19T22:41:06.010Z,102238.81
2022-10-19T22:43:35.158Z,102248.44
2022-10-19T22:46:02.958Z,102245.84
2022-10-19T22:48:30.750Z,102252.75
2022-10-19T22:50:58.466Z,102232.72
2022-10-19T22:53:26.326Z,102228.34
2022-10-19T22:55:54.124Z,102228.34
2022-10-19T22:58:21.825Z,102219.63
2022-10-19T23:01:01.607Z,102229.13
2022-10-19T23:03:29.302Z,102219.59
2022-10-19T23:05:57.040Z,102217.81
2022-10-19T23:08:24.962Z,102211.72
2022-10-19T23:10:52.827Z,102210.75
2022-10-19T23:13:20.570Z,102209.94
2022-10-19T23:15:48.473Z,102169.78
2022-10-19T23:18:17.695Z,102209.97
2022-10-19T23:20:53.888Z,102151.53
2022-10-19T23:23:21.736Z,102210.97
2022-10-19T23:25:58.844Z,102210.22
2022-10-19T23:28:26.616Z,102200.66
2022-10-19T23:30:56.125Z,102211.94
2022-10-19T23:33:25.795Z,102196.34
2022-10-19T23:35:53.602Z,102174.47
2022-10-19T23:38:21.290Z,102192.94
2022-10-19T23:40:49.011Z,102179.88
2022-10-19T23:43:16.702Z,102204.31
2022-10-19T23:45:46.485Z,102199.94
2022-10-19T23:48:14.163Z,102194.75
2022-10-19T23:50:43.277Z,102187.84
2022-10-19T23:53:10.961Z,102162.66
2022-10-19T23:55:38.684Z,102193.34
2022-10-19T23:58:06.409Z,102187.31
